createdAt,value
2022-10-05T03:57:36.971Z,39.70
2022-10-05T04:00:13.551Z,39.17
2022-10-05T04:02:46.125Z,39.50
2022-10-05T04:05:12.980Z,39.47
2022-10-05T04:07:31.140Z,37.97
2022-10-05T04:09:47.828Z,36.97
2022-10-05T04:12:06.606Z,34.65
2022-10-05T04:14:35.299Z,40.33
2022-10-05T04:16:48.328Z,43.58
2022-10-05T04:18:57.051Z,40.53
2022-10-05T04:21:09.782Z,45.17
2022-10-05T04:23:21.409Z,46.30
2022-10-05T04:25:34.159Z,44.20
2022-10-05T04:27:44.620Z,46.47
2022-10-05T04:30:13.203Z,36.53
2022-10-05T04:32:27.920Z,37.25
2022-10-05T04:34:39.220Z,40.10
2022-10-05T04:36:55.203Z,47.20
2022-10-05T04:39:21.130Z,41.75
2022-10-05T04:41:41.668Z,43.53
2022-10-05T04:43:44.091Z,52.72
2022-10-05T04:46:06.770Z,37.58
2022-10-05T04:50:48.013Z,43.08
2022-10-05T04:53:13.481Z,38.40
2022-10-05T04:55:41.811Z,41.17
2022-10-05T04:58:21.699Z,46.08
2022-10-05T05:00:45.294Z,37.40
2022-10-05T05:03:13.569Z,45.35
2022-10-05T05:05:41.479Z,46.40
2022-10-05T05:08:40.139Z,52.97
2022-10-05T05:11:16.178Z,44.05
2022-10-05T05:13:28.972Z,42.97
2022-10-05T05:15:53.354Z,43.80
2022-10-05T05:17:56.020Z,39.22
2022-10-05T05:20:20.751Z,37.45
2022-10-05T05:22:45.139Z,53.17
2022-10-05T05:25:16.149Z,54.10
2022-10-05T05:27:47.493Z,51.88
2022-10-05T05:30:23.360Z,45.90
2022-10-05T05:32:47.683Z,42.63
2022-10-05T05:35:17.679Z,37.17
2022-10-05T05:37:24.098Z,38.85
2022-10-05T05:39:34.289Z,41.28
2022-10-05T05:41:40.860Z,39.30
2022-10-05T05:44:06.649Z,36.03
2022-10-05T05:46:38.812Z,45.03
2022-10-05T05:48:47.651Z,38.55
2022-10-05T05:51:11.558Z,48.22
2022-10-05T05:53:22.478Z,35.00
2022-10-05T05:55:36.629Z,38.08
2022-10-05T05:57:56.923Z,32.97
2022-10-05T06:00:20.999Z,42.85
2022-10-05T06:02:32.917Z,36.63
2022-10-05T06:04:42.352Z,32.00
2022-10-05T06:06:49.454Z,34.47
2022-10-05T06:08:57.378Z,31.55
2022-10-05T06:11:06.858Z,36.15
2022-10-05T06:13:42.061Z,44.08
2022-10-05T06:16:12.400Z,33.75
2022-10-05T06:18:21.731Z,32.95
2022-10-05T06:20:34.361Z,31.50
2022-10-05T06:22:42.498Z,32.22
2022-10-05T06:25:12.540Z,19.92
2022-10-05T06:27:55.631Z,28.58
2022-10-05T06:32:32.459Z,29.40
2022-10-05T06:35:12.411Z,21.65
2022-10-05T06:37:29.238Z,24.95
2022-10-05T06:40:09.781Z,33.95
2022-10-05T06:42:28.560Z,26.75
2022-10-05T06:44:35.201Z,23.23
2022-10-05T06:46:52.931Z,25.10
2022-10-05T06:49:07.689Z,23.73
2022-10-05T06:51:27.662Z,28.35
2022-10-05T06:53:41.340Z,23.95
2022-10-05T06:56:02.728Z,20.77
2022-10-05T06:58:32.373Z,22.95
2022-10-05T07:01:11.948Z,28.35
2022-10-05T07:03:36.431Z,26.30
2022-10-05T07:05:58.820Z,28.55
2022-10-05T07:08:13.662Z,17.33
2022-10-05T07:10:37.169Z,24.13
2022-10-05T07:12:59.821Z,29.95
2022-10-05T07:17:58.788Z,18.80
2022-10-05T07:20:18.011Z,26.00
2022-10-05T07:22:29.390Z,17.73
2022-10-05T07:24:41.580Z,21.77
2022-10-05T07:26:51.578Z,25.05
2022-10-05T07:29:00.622Z,21.17
2022-10-05T07:31:14.301Z,21.65
2022-10-05T07:33:36.982Z,18.75
2022-10-05T07:36:22.701Z,20.92
2022-10-05T07:38:34.251Z,17.67
2022-10-05T07:40:58.761Z,24.10
2022-10-05T07:43:20.055Z,19.70
2022-10-05T07:45:43.364Z,23.08
2022-10-05T07:47:55.761Z,20.02
2022-10-05T07:52:52.912Z,25.65
2022-10-05T07:55:12.882Z,24.92
2022-10-05T07:57:19.359Z,21.52
2022-10-05T07:59:38.351Z,18.80
2022-10-05T08:01:50.986Z,21.42
2022-10-05T08:04:14.399Z,20.40
2022-10-05T08:06:46.610Z,21.23
2022-10-05T08:08:57.837Z,28.57
2022-10-05T08:11:18.219Z,15.85
2022-10-05T08:13:23.919Z,18.52
2022-10-05T08:15:37.454Z,21.40
2022-10-05T08:18:03.211Z,26.27
2022-10-05T08:20:50.557Z,22.75
2022-10-05T08:23:13.859Z,20.92
2022-10-05T08:25:26.907Z,18.73
2022-10-05T08:27:48.349Z,18.80
2022-10-05T08:30:05.704Z,25.25
2022-10-05T08:32:26.098Z,19.98
2022-10-05T08:34:31.467Z,18.90
2022-10-05T08:36:39.921Z,25.13
2022-10-05T08:38:43.389Z,16.58
2022-10-05T08:41:23.199Z,16.27
2022-10-05T08:43:44.029Z,21.20
2022-10-05T08:45:58.835Z,22.70
2022-10-05T08:48:19.437Z,19.88
2022-10-05T08:50:50.296Z,27.90
2022-10-05T08:53:19.919Z,20.92
2022-10-05T08:55:45.628Z,25.85
2022-10-05T08:58:06.489Z,23.58
2022-10-05T09:00:22.859Z,24.73
2022-10-05T09:02:51.357Z,16.85
2022-10-05T09:05:13.271Z,17.45
2022-10-05T09:07:36.217Z,21.08
2022-10-05T09:10:06.219Z,22.67
2022-10-05T09:12:26.921Z,18.67
2022-10-05T09:14:35.568Z,22.65
2022-10-05T09:17:12.477Z,18.38
2022-10-05T09:19:42.287Z,20.85
2022-10-05T09:21:59.416Z,21.60
2022-10-05T09:24:28.388Z,22.83
2022-10-05T09:27:00.027Z,21.42
2022-10-05T09:29:32.819Z,19.73
2022-10-05T09:32:24.418Z,22.40
2022-10-05T09:34:51.878Z,17.15
2022-10-05T09:37:16.327Z,23.85
2022-10-05T09:39:24.712Z,16.38
2022-10-05T09:42:02.887Z,20.40
2022-10-05T09:44:49.707Z,16.60
2022-10-05T09:47:15.478Z,16.02
2022-10-05T09:49:56.717Z,16.02
2022-10-05T09:52:09.029Z,20.83
2022-10-05T09:54:32.857Z,17.67
2022-10-05T09:57:25.839Z,16.73
2022-10-05T10:00:01.467Z,16.35
2022-10-05T10:02:45.621Z,16.17
2022-10-05T10:05:06.379Z,20.02
2022-10-05T10:07:25.109Z,10.48
2022-10-05T10:09:53.437Z,11.77
2022-10-05T10:12:19.859Z,22.40
2022-10-05T10:15:02.519Z,13.57
2022-10-05T10:19:44.258Z,23.05
2022-10-05T10:22:01.607Z,18.55
2022-10-05T10:24:30.088Z,16.58
2022-10-05T10:26:56.389Z,14.02
2022-10-05T10:29:34.256Z,19.70
2022-10-05T10:31:51.034Z,16.85
2022-10-05T10:34:30.640Z,13.73
2022-10-05T10:36:36.168Z,13.73
2022-10-05T10:38:59.579Z,13.98
2022-10-05T10:41:23.029Z,19.05
2022-10-05T10:43:44.380Z,16.25
2022-10-05T10:46:13.106Z,13.55
2022-10-05T10:48:31.007Z,17.25
2022-10-05T10:51:11.047Z,13.65
2022-10-05T10:53:47.038Z,19.70
2022-10-05T10:56:10.727Z,20.50
2022-10-05T10:58:35.353Z,15.70
2022-10-05T11:00:46.779Z,11.52
2022-10-05T11:03:06.127Z,14.88
2022-10-05T11:05:49.064Z,17.08
2022-10-05T11:08:30.547Z,12.63
2022-10-05T11:11:00.598Z,14.57
2022-10-05T11:13:17.479Z,13.18
2022-10-05T11:15:37.571Z,17.23
2022-10-05T11:17:50.097Z,22.65
2022-10-05T11:20:05.419Z,16.75
2022-10-05T11:22:52.339Z,7.65
2022-10-05T11:25:05.509Z,19.92
2022-10-05T11:27:08.737Z,14.50
2022-10-05T11:29:29.770Z,19.73
2022-10-05T11:31:47.763Z,12.93
2022-10-05T11:34:31.959Z,18.20
2022-10-05T11:36:54.069Z,11.77
2022-10-05T11:39:15.070Z,17.58
2022-10-05T11:41:33.337Z,15.50
2022-10-05T11:43:44.899Z,14.70
2022-10-05T11:46:05.775Z,12.50
2022-10-05T11:48:36.169Z,12.23
2022-10-05T11:51:18.759Z,10.27
2022-10-05T11:53:30.899Z,12.60
2022-10-05T11:55:47.820Z,16.83
2022-10-05T11:58:27.497Z,11.32
2022-10-05T12:00:55.869Z,11.57
2022-10-05T19:14:35.179Z,64.50
2022-10-05T19:17:00.229Z,65.53
2022-10-05T19:19:49.491Z,56.28
2022-10-05T19:22:33.489Z,60.72
2022-10-05T19:24:52.746Z,53.90
2022-10-05T19:27:11.833Z,48.95
2022-10-05T19:29:37.110Z,64.00
2022-10-05T19:31:58.199Z,51.80
2022-10-05T19:34:41.599Z,54.67
2022-10-05T19:36:54.714Z,53.10
2022-10-05T19:39:11.107Z,55.15
2022-10-05T19:41:28.188Z,55.58
2022-10-05T19:43:47.847Z,55.55
2022-10-05T19:46:08.652Z,51.35
2022-10-05T19:48:17.307Z,60.22
2022-10-05T19:50:33.678Z,55.70
2022-10-05T19:52:47.650Z,56.83
2022-10-05T19:55:24.612Z,53.42
2022-10-05T19:57:27.199Z,52.67
